Time;durP1;ratioP1;P1;durP2;ratioP2;P2;SDS_P1;SDS_P2;PMS_P1;PMS_P2;Temp;Humidity;BMP_temperature;BMP_pressure;BME280_temperature;BME280_humidity;BME280_pressure;Samples;Min_cycle;Max_cycle;Signal;HPM_P1;HPM_P2
2022/10/01 00:01:18;;;;;;;2.70;2.20;;;;;;;21.47;59.45;100916.56;5036084;28;20049;-85
2022/10/01 00:03:46;;;;;;;2.65;1.90;;;;;;;21.47;59.39;100924.66;5035974;28;20061;-85
2022/10/01 00:06:17;;;;;;;2.40;2.20;;;;;;;21.48;59.42;100918.25;5035679;28;20045;-85
2022/10/01 00:08:47;;;;;;;3.47;2.38;;;;;;;21.48;59.36;100923.66;5035926;28;20409;-85
2022/10/01 00:11:19;;;;;;;2.70;2.42;;;;;;;21.47;59.35;100924.66;5035925;28;20049;-85
2022/10/01 00:13:47;;;;;;;2.45;2.25;;;;;;;21.47;59.39;100921.94;5035614;28;20049;-85
2022/10/01 00:16:17;;;;;;;3.58;2.53;;;;;;;21.48;59.37;100922.78;5035427;28;20049;-84
2022/10/01 00:18:46;;;;;;;3.65;2.53;;;;;;;21.47;59.33;100921.06;5035850;28;20053;-84
2022/10/01 00:21:20;;;;;;;3.83;2.58;;;;;;;21.47;59.37;100915.69;5035828;28;20111;-85
2022/10/01 00:23:52;;;;;;;;;;;;;;;21.48;59.44;100920.94;5035859;28;20386;-84
2022/10/01 00:26:21;;;;;;;3.15;2.20;;;;;;;21.47;59.35;100918.38;5035880;28;19921;-83
2022/10/01 00:28:54;;;;;;;2.78;2.30;;;;;;;21.47;59.39;100923.75;5043149;28;20389;-84
2022/10/01 00:31:22;;;;;;;3.17;2.67;;;;;;;21.46;59.36;100920.22;5055410;28;20052;-85
2022/10/01 00:33:53;;;;;;;4.93;2.50;;;;;;;21.46;59.48;100931.00;5055413;28;20053;-85
2022/10/01 00:36:21;;;;;;;3.38;2.53;;;;;;;21.47;59.39;100931.84;5055735;28;20056;-84
2022/10/01 00:38:48;;;;;;;2.60;2.10;;;;;;;21.46;59.35;100936.38;5055624;28;20041;-85
2022/10/01 00:41:17;;;;;;;2.63;2.35;;;;;;;21.47;59.37;100930.03;5055415;28;20045;-84
2022/10/01 00:43:48;;;;;;;3.75;2.90;;;;;;;21.47;59.28;100926.47;5055022;28;20049;-84
2022/10/01 00:46:19;;;;;;;3.17;2.40;;;;;;;21.46;59.48;100927.47;5054058;28;20048;-84
2022/10/01 00:48:59;;;;;;;3.15;2.72;;;;;;;21.46;59.34;100932.84;5055051;28;20488;-85
2022/10/01 00:51:37;;;;;;;3.17;2.63;;;;;;;21.46;59.44;100940.94;5055492;28;20492;-85
2022/10/01 00:54:09;;;;;;;3.10;2.45;;;;;;;21.44;59.48;100938.38;5054994;28;20507;-84
2022/10/01 00:56:37;;;;;;;2.65;2.17;;;;;;;21.46;59.34;100940.94;5055341;28;20471;-84
2022/10/01 00:59:05;;;;;;;3.42;2.40;;;;;;;21.46;59.38;100944.47;5054723;28;20045;-85
2022/10/01 01:01:35;;;;;;;3.42;2.58;;;;;;;21.46;59.51;100938.22;5055031;28;20045;-84
2022/10/01 01:04:15;;;;;;;4.20;2.58;;;;;;;21.46;59.23;100943.63;5054748;28;20045;-84
2022/10/01 01:06:47;;;;;;;2.92;2.63;;;;;;;21.46;59.42;100939.09;5054942;28;20056;-85
2022/10/01 01:09:14;;;;;;;3.42;2.17;;;;;;;21.47;59.36;100942.63;5055272;28;20045;-84
2022/10/01 01:12:12;;;;;;;3.30;2.67;;;;;;;21.45;59.41;100947.31;5054662;28;20051;-85
2022/10/01 01:15:13;;;;;;;4.80;2.35;;;;;;;21.45;59.41;100947.31;5054650;28;20049;-85
2022/10/01 01:18:05;;;;;;;3.25;2.55;;;;;;;21.46;59.48;100946.31;5054928;28;20045;-85
2022/10/01 01:20:54;;;;;;;3.92;2.63;;;;;;;21.46;59.44;100957.94;5054298;28;20059;-86
2022/10/01 01:23:51;;;;;;;3.17;2.70;;;;;;;21.44;59.46;100962.63;5054694;28;20048;-86
2022/10/01 01:26:33;;;;;;;3.70;2.55;;;;;;;21.45;59.48;100969.72;5054394;28;20057;-87
2022/10/01 01:29:08;;;;;;;3.67;2.87;;;;;;;21.45;59.54;100958.94;5047303;28;20049;-87
2022/10/01 01:31:45;;;;;;;2.95;2.65;;;;;;;21.45;59.60;100960.78;5034706;28;20076;-86
2022/10/01 01:34:18;;;;;;;4.32;2.67;;;;;;;21.44;59.61;100962.63;5034707;28;20045;-86
2022/10/01 01:36:57;;;;;;;2.90;2.50;;;;;;;21.44;59.58;100962.63;5034710;28;20477;-87
2022/10/01 01:39:28;;;;;;;3.05;2.75;;;;;;;21.44;59.53;100965.31;5034741;28;20485;-87
2022/10/01 01:41:59;;;;;;;3.38;2.42;;;;;;;21.44;59.53;100964.47;5034563;28;20052;-86
2022/10/01 01:44:32;;;;;;;2.65;2.45;;;;;;;21.44;59.59;100976.09;5034544;28;20512;-87
2022/10/01 01:47:02;;;;;;;3.90;3.03;;;;;;;21.45;59.47;100982.34;5035689;28;20045;-87
2022/10/01 01:49:30;;;;;;;3.08;2.40;;;;;;;21.45;59.54;100979.63;5034771;28;20045;-87
2022/10/01 01:52:12;;;;;;;3.15;2.72;;;;;;;21.45;59.63;100979.63;5034489;28;20061;-87
2022/10/01 01:54:44;;;;;;;3.97;2.85;;;;;;;21.44;59.81;100988.72;5034657;28;20052;-86
2022/10/01 01:57:14;;;;;;;4.72;2.88;;;;;;;21.44;59.57;100991.41;5034632;28;20053;-84
2022/10/01 01:59:42;;;;;;;3.33;2.97;;;;;;;21.44;59.59;100991.41;5033904;28;20053;-86
2022/10/01 02:02:18;;;;;;;3.60;3.05;;;;;;;21.44;59.47;100994.09;5034649;28;20054;-87
2022/10/01 02:04:54;;;;;;;3.22;2.78;;;;;;;21.45;59.59;100998.50;5034055;28;20053;-86
2022/10/01 02:07:58;;;;;;;3.50;2.75;;;;;;;21.44;59.58;100999.50;5034391;28;20053;-86
2022/10/01 02:10:50;;;;;;;4.43;2.90;;;;;;;21.44;59.52;100991.41;5051959;28;20057;-86
2022/10/01 02:13:24;;;;;;;4.25;3.00;;;;;;;21.44;59.72;100989.56;5052616;28;20060;-87
2022/10/01 02:16:19;;;;;;;4.43;2.83;;;;;;;21.43;59.63;100992.38;5052295;28;20553;-86
2022/10/01 02:18:59;;;;;;;4.80;3.05;;;;;;;21.43;59.52;101003.16;5052586;28;20413;-85
2022/10/01 02:21:32;;;;;;;4.13;3.22;;;;;;;21.43;59.72;101003.16;5052227;28;20061;-86
2022/10/01 02:24:06;;;;;;;4.95;3.30;;;;;;;21.44;59.63;101010.25;5052087;28;20060;-86
2022/10/01 02:26:37;;;;;;;3.40;3.10;;;;;;;21.43;59.59;101013.94;5051750;28;20049;-85
2022/10/01 02:29:11;;;;;;;3.45;3.15;;;;;;;21.43;59.57;101014.81;5051797;28;20041;-86
2022/10/01 02:31:40;;;;;;;3.80;2.90;;;;;;;21.43;59.42;101022.00;5071720;28;20075;-86
2022/10/01 02:34:09;;;;;;;4.47;3.40;;;;;;;21.43;59.50;101024.69;5071844;28;20063;-86
2022/10/01 02:36:41;;;;;;;4.68;3.03;;;;;;;21.42;59.49;101026.53;5056099;28;20447;-85
2022/10/01 02:39:10;;;;;;;3.35;3.00;;;;;;;21.42;59.40;101028.41;5071743;28;20523;-86
2022/10/01 02:41:37;;;;;;;3.40;3.03;;;;;;;21.42;59.47;101018.47;5072055;28;20056;-86
2022/10/01 02:44:07;;;;;;;3.35;2.85;;;;;;;21.43;59.40;101028.28;5071550;28;20048;-86
2022/10/01 02:46:59;;;;;;;3.70;3.05;;;;;;;21.41;59.46;101024.84;5059043;28;20065;-86
2022/10/01 02:49:28;;;;;;;3.85;3.40;;;;;;;21.42;59.39;101020.31;5033901;28;20038;-86
2022/10/01 02:52:06;;;;;;;5.07;3.00;;;;;;;21.42;59.41;101014.94;5033731;28;20041;-86
2022/10/01 02:54:41;;;;;;;4.72;3.20;;;;;;;21.42;59.39;101015.78;5033454;28;20053;-86
2022/10/01 02:57:26;;;;;;;4.03;2.90;;;;;;;21.43;59.38;101019.31;5033929;28;20048;-86
2022/10/01 02:59:57;;;;;;;4.00;3.05;;;;;;;21.41;59.44;101008.69;5033873;28;20056;-86
2022/10/01 03:02:27;;;;;;;3.80;3.40;;;;;;;21.41;59.34;101007.84;5034202;28;20057;-85
2022/10/01 03:04:57;;;;;;;3.05;2.60;;;;;;;21.41;59.41;101010.53;5033448;28;20050;-86
2022/10/01 03:07:27;;;;;;;3.58;2.97;;;;;;;21.41;59.36;101007.84;5033711;28;20053;-85
2022/10/01 03:09:55;;;;;;;4.35;3.22;;;;;;;21.42;59.42;101006.84;5033620;28;20044;-85
2022/10/01 03:12:23;;;;;;;3.70;2.95;;;;;;;21.41;59.36;101011.38;5032180;28;20057;-85
2022/10/01 03:14:50;;;;;;;3.67;3.10;;;;;;;21.40;59.36;101007.00;5034009;28;20381;-85
2022/10/01 03:17:18;;;;;;;3.60;2.95;;;;;;;21.40;59.32;101006.16;5035674;28;20489;-85
2022/10/01 03:19:45;;;;;;;3.60;3.15;;;;;;;21.40;59.26;101011.53;5037204;28;20042;-85
2022/10/01 03:22:17;;;;;;;3.33;2.88;;;;;;;21.41;59.29;101008.69;5037177;28;20053;-85
2022/10/01 03:24:44;;;;;;;3.75;2.78;;;;;;;21.41;59.27;101011.38;5036654;28;20053;-86
2022/10/01 03:27:11;;;;;;;3.17;2.83;;;;;;;21.40;59.29;101009.69;5037140;28;20472;-86
2022/10/01 03:29:38;;;;;;;3.75;3.13;;;;;;;21.39;59.35;101015.19;5037631;28;20571;-86
2022/10/01 03:32:06;;;;;;;5.05;3.45;;;;;;;21.40;59.21;101011.53;5037008;28;20408;-86
2022/10/01 03:34:33;;;;;;;3.45;3.15;;;;;;;21.40;59.24;101025.00;5035756;28;20053;-85
2022/10/01 03:37:00;;;;;;;4.03;3.50;;;;;;;21.40;59.30;101025.00;5037052;28;20045;-86
2022/10/01 03:39:28;;;;;;;4.05;3.13;;;;;;;21.40;59.29;101019.63;5036320;28;20068;-86
2022/10/01 03:41:55;;;;;;;3.50;2.92;;;;;;;21.39;59.21;101017.91;5036833;28;20052;-86
2022/10/01 03:44:22;;;;;;;3.30;3.00;;;;;;;21.38;59.25;101025.13;5036605;28;20481;-86
2022/10/01 03:46:49;;;;;;;3.95;3.53;;;;;;;21.38;59.23;101019.75;5036612;28;20072;-85
2022/10/01 03:49:17;;;;;;;3.85;2.95;;;;;;;21.38;59.22;101021.59;5036320;28;20400;-86
2022/10/01 03:51:44;;;;;;;4.30;3.53;;;;;;;21.38;59.16;101018.91;5036646;28;20045;-86
2022/10/01 03:54:11;;;;;;;3.33;3.00;;;;;;;21.39;59.08;101015.19;5036192;28;20405;-86
2022/10/01 03:56:41;;;;;;;3.08;2.75;;;;;;;21.39;59.15;101020.59;5036601;28;20113;-85
2022/10/01 03:59:10;;;;;;;4.57;3.63;;;;;;;21.38;59.05;101022.44;5036303;28;20045;-86
2022/10/01 04:01:38;;;;;;;3.33;2.88;;;;;;;21.37;59.09;101020.75;5036339;28;20056;-85
2022/10/01 04:04:06;;;;;;;3.40;3.08;;;;;;;21.38;59.06;101014.34;5036130;28;20056;-86
2022/10/01 04:06:33;;;;;;;3.15;2.85;;;;;;;21.38;59.06;101006.28;5035897;28;20045;-85
2022/10/01 04:09:00;;;;;;;3.53;3.22;;;;;;;21.39;59.11;101007.13;5035906;28;20049;-85
2022/10/01 04:11:28;;;;;;;2.65;2.40;;;;;;;21.38;58.98;101008.97;5035858;28;20508;-84
2022/10/01 04:13:56;;;;;;;3.80;3.20;;;;;;;21.38;59.08;101000.88;5035788;28;20488;-85
2022/10/01 04:16:24;;;;;;;3.58;2.88;;;;;;;21.37;58.93;101007.28;5035793;28;20050;-85
2022/10/01 04:18:51;;;;;;;3.33;3.03;;;;;;;21.38;58.87;101005.44;5035618;28;20045;-85
2022/10/01 04:21:19;;;;;;;3.28;2.80;;;;;;;21.37;58.95;101009.13;5035927;28;20050;-85
2022/10/01 04:23:48;;;;;;;2.92;2.70;;;;;;;21.37;58.91;101001.03;5035748;28;20044;-85
2022/10/01 04:26:17;;;;;;;2.95;2.50;;;;;;;21.37;58.68;100998.34;5035933;28;20120;-86
2022/10/01 04:28:45;;;;;;;2.85;2.47;;;;;;;21.36;58.88;100984.03;5035124;28;20046;-85
2022/10/01 04:31:25;;;;;;;3.15;2.80;;;;;;;21.36;58.82;100984.03;5041198;28;20076;-86
2022/10/01 04:33:56;;;;;;;3.63;3.17;;;;;;;21.36;58.74;100975.97;5054196;28;20049;-86
2022/10/01 04:36:24;;;;;;;2.95;2.53;;;;;;;21.37;58.76;100988.41;5055598;28;20511;-86
2022/10/01 04:38:53;;;;;;;3.33;2.85;;;;;;;21.36;58.79;101004.72;5055331;28;20044;-86
2022/10/01 04:41:29;;;;;;;3.25;2.88;;;;;;;21.36;58.57;101007.44;5055646;28;20142;-86
2022/10/01 04:43:58;;;;;;;2.85;2.47;;;;;;;21.36;58.79;101004.72;5055329;28;20052;-86
2022/10/01 04:46:27;;;;;;;3.33;2.80;;;;;;;;;;5055398;28;20045;-86
2022/10/01 04:48:54;;;;;;;3.53;3.03;;;;;;;21.36;58.67;101016.34;5054046;28;20052;-85
2022/10/01 04:51:21;;;;;;;3.15;2.67;;;;;;;21.36;58.73;101019.03;5054098;28;20048;-86
2022/10/01 04:53:49;;;;;;;3.40;3.05;;;;;;;;;;5054215;28;20416;-87
2022/10/01 04:56:16;;;;;;;2.75;2.45;;;;;;;21.34;58.64;101025.56;5054418;28;20059;-85
2022/10/01 04:58:43;;;;;;;3.38;3.08;;;;;;;21.35;58.64;101027.25;5054770;28;20400;-84
2022/10/01 05:01:10;;;;;;;4.32;2.83;;;;;;;;;;5055221;28;20060;-85
2022/10/01 05:03:37;;;;;;;2.70;2.45;;;;;;;21.35;58.59;101032.63;5054904;28;20045;-86
2022/10/01 05:06:05;;;;;;;3.40;2.83;;;;;;;;;;5053511;28;20076;-85
2022/10/01 05:08:32;;;;;;;3.97;2.33;;;;;;;21.35;58.65;101040.72;5055416;28;20049;-85
2022/10/01 05:10:59;;;;;;;3.03;2.65;;;;;;;21.35;58.49;101040.72;5054539;28;20048;-85
2022/10/01 05:13:28;;;;;;;3.45;2.45;;;;;;;21.34;58.53;101042.56;5054976;28;20044;-85
2022/10/01 05:15:57;;;;;;;3.10;2.38;;;;;;;21.35;58.48;101048.78;5054393;28;20056;-84
2022/10/01 05:18:24;;;;;;;2.45;2.22;;;;;;;21.33;58.48;101040.03;5054263;28;20801;-84
2022/10/01 05:20:52;;;;;;;3.33;2.70;;;;;;;21.33;58.45;101038.16;5054571;28;20041;-83
2022/10/01 05:23:19;;;;;;;2.75;2.55;;;;;;;21.34;58.42;101047.09;5054847;28;20049;-86
2022/10/01 05:25:46;;;;;;;3.35;2.88;;;;;;;21.34;58.39;101047.09;5054674;28;20045;-84
2022/10/01 05:28:14;;;;;;;2.95;2.63;;;;;;;21.33;58.39;101048.09;5055099;28;20056;-86
2022/10/01 05:30:49;;;;;;;3.03;2.75;;;;;;;21.34;58.36;101041.72;5054778;28;20499;-85
2022/10/01 05:33:17;;;;;;;3.38;2.63;;;;;;;21.33;58.35;101045.41;5047807;28;20045;-85
2022/10/01 05:35:44;;;;;;;3.30;2.92;;;;;;;21.32;58.36;101047.25;5034993;28;20053;-85
2022/10/01 05:38:12;;;;;;;3.42;2.40;;;;;;;21.32;58.32;101043.69;5034327;28;20068;-84
2022/10/01 05:40:44;;;;;;;3.00;2.70;;;;;;;21.32;58.35;101044.56;5033883;28;20061;-84
2022/10/01 05:43:11;;;;;;;3.17;2.88;;;;;;;21.31;58.26;101044.66;5034670;28;20488;-84
2022/10/01 05:45:39;;;;;;;3.03;2.72;;;;;;;21.31;58.16;101053.59;5033455;28;20056;-86
2022/10/01 05:48:08;;;;;;;3.38;2.90;;;;;;;21.32;58.14;101055.31;5033488;28;20045;-86
2022/10/01 05:50:41;;;;;;;3.08;2.55;;;;;;;21.32;58.18;101059.84;5034539;28;20045;-86
2022/10/01 05:53:12;;;;;;;3.30;2.72;;;;;;;21.31;58.25;101063.50;5035138;28;20049;-85
2022/10/01 05:55:40;;;;;;;3.13;2.35;;;;;;;21.30;58.12;101069.88;5033916;28;20045;-85
2022/10/01 05:58:09;;;;;;;2.80;2.45;;;;;;;21.31;58.13;101061.69;5035046;28;20049;-85
2022/10/01 06:00:38;;;;;;;2.63;2.30;;;;;;;21.30;58.07;101069.88;5034357;28;20042;-85
2022/10/01 06:03:06;;;;;;;3.35;3.00;;;;;;;21.31;58.01;101074.25;5034359;28;20056;-85
2022/10/01 06:05:34;;;;;;;2.95;2.65;;;;;;;21.30;57.76;101084.19;5034190;28;20042;-85
2022/10/01 06:08:06;;;;;;;3.60;2.65;;;;;;;21.31;57.38;101083.22;5052606;28;20072;-85
2022/10/01 06:10:35;;;;;;;2.95;2.65;;;;;;;21.31;57.14;101082.34;5053937;28;20049;-85
2022/10/01 06:13:04;;;;;;;3.20;2.47;;;;;;;21.30;57.08;101083.34;5053924;28;20048;-86
2022/10/01 06:15:36;;;;;;;2.97;2.53;;;;;;;21.30;56.95;101089.56;5054240;28;20049;-86
2022/10/01 06:18:08;;;;;;;2.90;2.47;;;;;;;21.31;56.82;101093.13;5054238;28;20072;-85
2022/10/01 06:20:35;;;;;;;3.25;2.78;;;;;;;21.30;56.81;101091.41;5053868;28;20516;-86
2022/10/01 06:23:06;;;;;;;3.17;2.72;;;;;;;21.30;56.82;101100.34;5055994;28;20053;-86
2022/10/01 06:25:35;;;;;;;3.13;2.67;;;;;;;21.32;56.70;101102.91;5055446;28;20049;-86
2022/10/01 06:28:04;;;;;;;2.78;2.30;;;;;;;21.31;56.90;101110.16;5054063;28;20056;-85
2022/10/01 06:30:35;;;;;;;4.32;2.97;;;;;;;21.32;56.74;101108.31;5054781;28;20392;-86
2022/10/01 06:33:08;;;;;;;3.00;2.60;;;;;;;21.30;56.72;101105.72;5050523;28;20045;-86
2022/10/01 06:35:40;;;;;;;3.55;2.53;;;;;;;21.31;56.68;101102.06;5046896;28;20045;-86
2022/10/01 06:38:09;;;;;;;3.15;2.65;;;;;;;21.33;56.71;101110.88;5055718;28;20048;-85
2022/10/01 06:40:36;;;;;;;3.03;2.47;;;;;;;21.32;56.67;101103.81;5056182;28;20064;-86
2022/10/01 06:43:06;;;;;;;3.35;2.38;;;;;;;21.32;56.68;101109.19;5055170;28;20045;-86
2022/10/01 06:45:42;;;;;;;3.15;2.78;;;;;;;21.32;56.70;101117.25;5054948;28;20045;-86
2022/10/01 06:48:13;;;;;;;3.22;2.70;;;;;;;21.33;56.71;101127.03;5055158;28;20067;-85
2022/10/01 06:50:44;;;;;;;3.55;2.28;;;;;;;21.33;56.76;101128.88;5056759;28;20072;-86
2022/10/01 06:53:13;;;;;;;2.95;2.33;;;;;;;21.33;56.79;101132.44;5058274;28;20076;-85
2022/10/01 06:55:41;;;;;;;4.22;2.60;;;;;;;21.32;56.72;101128.03;5059121;28;20056;-85
2022/10/01 06:58:25;;;;;;;3.25;2.42;;;;;;;21.34;56.77;101152.13;5058943;28;20045;-86
2022/10/01 07:00:58;;;;;;;2.90;2.42;;;;;;;21.34;56.75;101149.44;5059196;28;20037;-86
2022/10/01 07:03:26;;;;;;;2.88;2.42;;;;;;;21.34;56.78;101144.03;5059113;28;20052;-86
2022/10/01 07:06:01;;;;;;;2.80;2.53;;;;;;;21.32;56.78;101136.13;5058423;28;20056;-85
2022/10/01 07:08:28;;;;;;;2.97;2.60;;;;;;;21.34;56.80;101141.34;5058523;28;20052;-85
2022/10/01 07:11:01;;;;;;;2.58;2.33;;;;;;;21.34;56.75;101144.03;5058520;28;20045;-85
2022/10/01 07:13:28;;;;;;;2.30;1.90;;;;;;;21.35;56.84;101151.13;5058472;28;20511;-85
2022/10/01 07:15:56;;;;;;;3.53;2.20;;;;;;;21.34;56.80;101149.44;5058192;28;20053;-86
2022/10/01 07:18:23;;;;;;;2.80;2.47;;;;;;;21.34;56.81;101149.44;5057956;28;20045;-86
2022/10/01 07:20:50;;;;;;;3.00;2.60;;;;;;;21.35;56.79;101156.50;5057523;28;20056;-85
2022/10/01 07:23:18;;;;;;;3.47;2.15;;;;;;;21.36;56.85;101152.84;5057557;28;20049;-86
2022/10/01 07:25:45;;;;;;;2.88;2.30;;;;;;;21.36;56.84;101160.94;5057930;28;20056;-86
2022/10/01 07:28:16;;;;;;;3.17;2.70;;;;;;;21.37;56.79;101168.03;5058434;28;20049;-86
2022/10/01 07:30:55;;;;;;;2.65;2.35;;;;;;;21.36;56.78;101155.56;5059176;28;20040;-86
2022/10/01 07:33:22;;;;;;;3.97;2.90;;;;;;;21.36;56.77;101155.56;5058873;28;20041;-86
2022/10/01 07:35:50;;;;;;;3.53;2.83;;;;;;;21.36;56.86;101161.78;5041866;28;20049;-86
2022/10/01 07:38:17;;;;;;;3.17;2.80;;;;;;;21.37;56.92;101162.63;5037958;28;20053;-86
2022/10/01 07:40:50;;;;;;;4.22;2.80;;;;;;;21.36;56.98;101159.09;5037728;28;20057;-85
2022/10/01 07:43:18;;;;;;;4.18;3.17;;;;;;;;;;5036949;28;20706;-86
2022/10/01 07:46:03;;;;;;;3.33;2.67;;;;;;;21.37;56.91;101168.03;5038373;28;20412;-85
2022/10/01 07:48:31;;;;;;;3.80;3.33;;;;;;;21.36;57.06;101172.56;5038488;28;20060;-85
2022/10/01 07:50:58;;;;;;;4.13;2.88;;;;;;;21.36;57.19;101163.63;5037992;28;20041;-86
2022/10/01 07:53:26;;;;;;;5.60;3.63;;;;;;;21.36;57.26;101172.56;5037808;28;20045;-86
2022/10/01 07:55:53;;;;;;;3.45;3.05;;;;;;;21.36;57.19;101166.31;5037352;28;20041;-86
2022/10/01 07:58:22;;;;;;;2.88;2.60;;;;;;;21.36;57.20;101158.25;5038001;28;20049;-84
2022/10/01 08:00:54;;;;;;;4.22;3.03;;;;;;;21.37;57.25;101171.56;5037640;28;20535;-85
2022/10/01 08:03:22;;;;;;;3.67;3.28;;;;;;;21.36;57.27;101169.88;5037028;28;20048;-84
2022/10/01 08:05:51;;;;;;;3.42;2.88;;;;;;;21.36;57.27;101172.56;5037377;28;20052;-85
2022/10/01 08:08:19;;;;;;;4.57;3.47;;;;;;;21.38;57.27;101172.41;5037418;28;20053;-85
2022/10/01 08:10:48;;;;;;;4.25;3.00;;;;;;;21.37;57.20;101176.09;5037567;28;20045;-85
2022/10/01 08:17:01;;;;;;;2.78;2.47;;;;;;;21.38;57.47;101177.78;5037416;28;20045;-89
2022/10/01 08:19:28;;;;;;;4.20;3.17;;;;;;;21.38;57.25;101175.09;5037786;28;20444;-88
2022/10/01 08:21:56;;;;;;;7.75;6.45;;;;;;;21.33;56.63;101180.06;5037607;28;20394;-87
2022/10/01 08:24:23;;;;;;;7.80;6.65;;;;;;;21.28;56.84;101183.13;5037155;28;20050;-88
2022/10/01 08:26:54;;;;;;;12.02;7.95;;;;;;;21.21;57.37;101177.41;5036517;28;20045;-87
2022/10/01 08:29:22;;;;;;;9.00;6.35;;;;;;;21.18;57.41;101183.06;5047759;28;20376;-83
2022/10/01 08:31:49;;;;;;;6.55;5.25;;;;;;;21.18;57.46;101177.69;5056323;28;20056;-84
2022/10/01 08:34:16;;;;;;;6.57;4.70;;;;;;;21.19;57.56;101167.78;5057014;28;20049;-84
2022/10/01 08:36:44;;;;;;;6.45;4.05;;;;;;;21.21;57.59;101161.25;5042639;28;20428;-85
2022/10/01 08:39:13;;;;;;;4.68;3.95;;;;;;;21.23;57.61;101164.69;5037135;28;20046;-85
2022/10/01 08:42:06;;;;;;;4.47;3.65;;;;;;;21.26;57.49;101168.94;5037092;28;20072;-85
2022/10/01 08:44:41;;;;;;;4.47;3.72;;;;;;;21.29;57.50;101173.19;5037516;28;20056;-86
2022/10/01 08:47:25;;;;;;;4.50;4.00;;;;;;;21.30;57.32;101166.81;5037400;28;20057;-85
2022/10/01 08:49:59;;;;;;;;;;;;;;;21.32;57.46;101168.44;5043305;28;20049;-85
2022/10/01 08:52:39;;;;;;;4.97;4.00;;;;;;;21.34;57.45;101171.81;5057425;28;20300;-86
2022/10/01 08:55:15;;;;;;;4.13;3.72;;;;;;;21.36;57.64;101177.94;5056717;28;20057;-85
2022/10/01 08:57:50;;;;;;;4.13;3.60;;;;;;;21.37;57.67;101193.09;5056825;28;20395;-85
2022/10/01 09:00:19;;;;;;;3.38;3.05;;;;;;;21.38;57.61;101186.72;5056665;28;20049;-84
2022/10/01 09:02:47;;;;;;;4.95;3.63;;;;;;;21.39;57.94;101174.97;5056411;28;20044;-85
2022/10/01 09:05:32;;;;;;;5.05;3.85;;;;;;;21.40;58.07;101171.28;5056504;28;20053;-84
2022/10/01 09:08:22;;;;;;;4.68;3.65;;;;;;;21.41;57.98;101172.13;5056402;28;20044;-83
2022/10/01 09:11:03;;;;;;;3.60;3.08;;;;;;;21.42;57.85;101165.75;5057026;28;20064;-88
2022/10/01 09:13:39;;;;;;;4.47;3.65;;;;;;;21.42;57.93;101177.38;5056669;28;20045;-88
2022/10/01 09:16:24;;;;;;;6.75;3.65;;;;;;;21.43;57.72;101180.91;5056935;28;20052;-88
2022/10/01 09:19:00;;;;;;;7.53;4.88;;;;;;;21.43;57.70;101175.53;5056708;28;20052;-88
2022/10/01 09:21:39;;;;;;;6.80;4.88;;;;;;;21.44;57.40;101180.81;5057539;28;20392;-88
2022/10/01 09:24:32;;;;;;;10.48;4.80;;;;;;;21.43;57.44;101172.84;5056823;28;20060;-86
2022/10/01 09:27:00;;;;;;;6.70;3.90;;;;;;;21.44;57.39;101171.88;5057180;28;20045;-86
2022/10/01 09:29:40;;;;;;;5.70;3.58;;;;;;;21.45;57.41;101178.97;5053065;28;20052;-86
2022/10/01 09:32:14;;;;;;;5.70;3.88;;;;;;;21.46;57.52;101183.34;5055896;28;20048;-86
2022/10/01 09:34:43;;;;;;;7.13;4.43;;;;;;;21.45;57.39;101173.56;5054524;28;20122;-85
2022/10/01 09:38:00;;;;;;;7.47;3.72;;;;;;;21.45;57.68;101171.72;5042708;28;20048;-86
2022/10/01 09:40:54;;;;;;;7.00;4.20;;;;;;;21.45;57.70;101163.66;5028830;28;20489;-80
2022/10/01 09:43:25;;;;;;;6.55;3.80;;;;;;;21.46;57.63;101156.41;5034682;28;20049;-82
2022/10/01 09:45:53;;;;;;;9.30;4.03;;;;;;;21.48;57.70;101159.84;5034439;28;20054;-84
2022/10/01 09:48:27;;;;;;;5.50;3.47;;;;;;;21.48;57.84;101166.06;5034276;28;20041;-86
2022/10/01 09:51:05;;;;;;;8.82;4.30;;;;;;;21.51;58.04;101166.78;5033704;28;20049;-83
2022/10/01 09:53:40;;;;;;;7.57;3.60;;;;;;;21.52;57.80;101169.34;5034019;28;20500;-83
2022/10/01 09:56:14;;;;;;;6.20;3.95;;;;;;;21.52;57.82;101174.72;5033752;28;20472;-84
2022/10/01 09:58:46;;;;;;;6.68;3.10;;;;;;;21.53;57.70;101170.19;5033685;28;20056;-80
2022/10/01 10:01:27;;;;;;;9.68;3.40;;;;;;;21.54;57.97;101170.03;5034397;28;20370;-84
2022/10/01 10:03:56;;;;;;;4.85;3.45;;;;;;;21.55;57.83;101166.34;5034724;28;20104;-84
2022/10/01 10:06:29;;;;;;;5.05;3.83;;;;;;;21.57;57.73;101166.22;5034289;28;20053;-84
2022/10/01 10:09:00;;;;;;;5.95;3.17;;;;;;;21.56;57.68;101162.69;5055224;28;20059;-83
2022/10/01 10:11:30;;;;;;;4.00;3.55;;;;;;;21.56;57.68;101173.47;5054027;28;20400;-84
2022/10/01 10:14:01;;;;;;;5.75;3.08;;;;;;;21.57;57.55;101160.84;5054680;28;20045;-84
2022/10/01 10:16:33;;;;;;;5.57;3.40;;;;;;;21.56;57.33;101165.38;5053692;28;20488;-84
2022/10/01 10:19:08;;;;;;;4.97;3.20;;;;;;;21.57;57.20;101161.69;5054590;28;20053;-84
2022/10/01 10:21:36;;;;;;;5.32;3.03;;;;;;;21.56;57.21;101151.91;5055021;28;20056;-84
2022/10/01 10:24:21;;;;;;;3.67;3.03;;;;;;;21.55;57.10;101152.88;5054825;28;20389;-83
2022/10/01 10:26:54;;;;;;;6.55;3.85;;;;;;;21.55;57.05;101152.88;5058575;28;20048;-83
2022/10/01 10:29:30;;;;;;;4.32;3.35;;;;;;;21.56;57.09;101153.75;5058960;28;20072;-83
2022/10/01 10:32:03;;;;;;;4.75;3.50;;;;;;;21.54;57.07;101151.19;5058429;28;20037;-83
2022/10/01 10:34:37;;;;;;;5.22;3.92;;;;;;;21.54;57.14;101137.72;5058417;28;20053;-83
2022/10/01 10:37:13;;;;;;;4.10;3.42;;;;;;;21.55;57.05;101143.94;5056978;28;20404;-83
2022/10/01 10:39:46;;;;;;;4.68;3.10;;;;;;;21.55;56.95;101133.19;5042190;28;20068;-83
2022/10/01 10:42:14;;;;;;;6.05;4.00;;;;;;;21.54;56.87;101124.25;5038257;28;20072;-83
2022/10/01 10:44:45;;;;;;;5.00;3.05;;;;;;;21.54;57.20;101121.56;5038987;28;20401;-83
2022/10/01 10:47:15;;;;;;;11.05;3.83;;;;;;;21.56;57.05;101106.13;5038794;28;20412;-83
2022/10/01 10:49:44;;;;;;;3.65;2.85;;;;;;;21.55;57.16;101109.78;5042381;28;20055;-80
2022/10/01 10:52:28;;;;;;;5.10;3.65;;;;;;;21.58;57.18;101109.50;5056677;28;20052;-85
2022/10/01 10:54:58;;;;;;;7.80;4.38;;;;;;;21.60;56.75;101107.53;5058459;28;20056;-79
2022/10/01 10:57:30;;;;;;;7.80;6.05;;;;;;;21.56;56.00;101110.66;5058616;28;20052;-82
2022/10/01 11:00:00;;;;;;;6.55;5.80;;;;;;;21.51;55.88;101102.97;5057918;28;20052;-77
2022/10/01 11:02:30;;;;;;;6.53;5.78;;;;;;;21.48;55.96;101097.88;5057571;28;20041;-79
2022/10/01 11:05:02;;;;;;;5.40;4.85;;;;;;;21.50;56.16;101097.72;5057684;28;20052;-81
2022/10/01 11:07:30;;;;;;;5.38;4.55;;;;;;;21.48;56.25;101090.66;5057821;28;20044;-81
2022/10/01 11:10:00;;;;;;;7.72;6.40;;;;;;;21.47;56.12;101086.25;5057066;28;20412;-80
2022/10/01 11:12:55;;;;;;;8.00;5.60;;;;;;;21.44;56.35;101083.00;5058007;28;20045;-80
2022/10/01 11:15:28;;;;;;;6.20;4.97;;;;;;;21.43;56.43;101073.19;5037813;28;20056;-80
2022/10/01 11:18:14;;;;;;;5.25;4.30;;;;;;;21.42;56.73;101076.88;5037338;28;20049;-83
2022/10/01 11:21:11;;;;;;;5.55;4.82;;;;;;;21.42;56.90;101075.03;5037715;28;20048;-82
2022/10/01 11:24:00;;;;;;;6.45;5.65;;;;;;;21.42;56.59;101071.50;5035274;28;20069;-80
2022/10/01 11:26:39;;;;;;;5.63;5.00;;;;;;;21.40;56.72;101078.88;5035538;28;20049;-80
2022/10/01 11:29:14;;;;;;;8.35;7.55;;;;;;;;;;5035792;28;20386;-80
2022/10/01 11:32:18;;;;;;;7.95;6.78;;;;;;;21.28;56.34;101071.88;5035119;28;20057;-79
2022/10/01 11:35:08;;;;;;;7.65;6.15;;;;;;;21.23;56.52;101070.44;5035269;28;20053;-80
2022/10/01 11:37:59;;;;;;;8.10;5.78;;;;;;;21.22;56.96;101057.94;5016019;28;20053;-80
2022/10/01 11:40:33;;;;;;;7.00;4.85;;;;;;;21.22;56.90;101049.03;5033366;28;20056;-81
2022/10/01 11:43:25;;;;;;;5.00;4.10;;;;;;;21.26;56.63;101049.59;5035849;28;20053;-81
2022/10/01 11:46:02;;;;;;;8.32;4.35;;;;;;;21.29;56.93;101046.63;5034773;28;20049;-79
2022/10/01 11:48:37;;;;;;;6.20;4.25;;;;;;;21.30;56.94;101042.94;5034504;28;20057;-75
2022/10/01 11:51:11;;;;;;;4.95;4.03;;;;;;;21.30;57.67;101040.25;5034383;28;20049;-76
2022/10/01 11:53:44;;;;;;;5.55;4.40;;;;;;;21.31;59.48;101036.56;5033572;28;20067;-76
2022/10/01 11:59:28;;;;;;;4.40;3.50;;;;;;;21.29;61.93;101034.03;5033689;28;20064;-76
2022/10/01 12:02:17;;;;;;;6.10;4.35;;;;;;;21.29;59.25;101043.94;5035978;28;20060;-76